Cold Springs, Nevada
Current Conditions -  °F | °C
As of 5:35 AM on Saturday 25 Oct 2014 (Local Time) from KRTS Reporting Station
Clear Clear  
Wind Chill: 14°   Ceiling: Unl
Heat Index: 14°   Visibility: 10mi
Dew Point: -4°   Wind: 20mph
Humidity: 29%   Direction: 220°SW
Pressure: 29.91"   Gusts: 29mph
Location:  39.7378°N, 119.889°W
Report Text: KRTS 251235Z AUTO 22017G25KT 10SM CLR 14/M04 A2991 RMK AO2
Loading
Personal Weather Stations






























Interactive Weather Map
Tropical Storm Tracking
New forecast layout! Learn more

10-Day Weather Forecast

Advertisements
Track Severe Weather on mobile